Time;durP1;ratioP1;P1;durP2;ratioP2;P2;SDS_P1;SDS_P2;PMS_P1;PMS_P2;Temp;Humidity;BMP_temperature;BMP_pressure;BME280_temperature;BME280_humidity;BME280_pressure;Samples;Min_cycle;Max_cycle;Signal;HPM_P1;HPM_P2
2022/12/15 00:40:18;;;;;;;44.07;27.37;;;;;;;0.20;89.94;99437.94;1484344;88;22394;-86
2022/12/15 00:42:44;;;;;;;47.17;27.40;;;;;;;0.21;90.02;99437.47;1458955;88;21625;-85
2022/12/15 00:45:10;;;;;;;39.30;24.00;;;;;;;0.22;89.93;99441.72;1482503;88;21940;-85
2022/12/15 00:47:36;;;;;;;40.40;26.10;;;;;;;0.24;89.76;99442.92;1478509;88;21778;-86
2022/12/15 01:20:23;;;;;;;43.63;24.57;;;;;;;0.48;88.94;99448.19;1480519;88;21594;-87
2022/12/15 01:22:53;;;;;;;38.83;22.97;;;;;;;0.45;89.09;99443.55;1476652;87;22666;-87
2022/12/15 01:25:23;;;;;;;41.80;24.23;;;;;;;0.51;89.26;99441.46;1481718;87;21667;-86
2022/12/15 01:27:50;;;;;;;38.33;24.07;;;;;;;0.55;89.21;99435.12;1478630;88;21507;-85
2022/12/15 01:30:21;;;;;;;37.70;23.30;;;;;;;0.57;89.32;99433.22;1479331;88;21546;-85
2022/12/15 01:32:48;;;;;;;39.67;22.52;;;;;;;0.60;89.25;99436.91;1484303;88;22711;-86
2022/12/15 01:35:15;;;;;;;42.20;23.73;;;;;;;0.61;89.38;99429.00;1485035;88;21315;-87
2022/12/15 01:37:41;;;;;;;37.03;23.33;;;;;;;0.63;89.40;99428.87;1478100;88;21698;-87
2022/12/15 01:42:58;;;;;;;41.20;23.00;;;;;;;0.64;89.41;99434.47;1478846;87;21812;-85
2022/12/15 01:45:33;;;;;;;43.20;23.67;;;;;;;0.66;89.76;99426.05;1481294;88;21668;-86
2022/12/15 01:48:06;;;;;;;32.60;20.53;;;;;;;0.69;90.19;99424.53;1467402;88;21857;-88
2022/12/15 01:50:38;;;;;;;35.07;21.70;;;;;;;0.72;90.01;99432.15;1465570;88;21906;-86
2022/12/15 01:53:04;;;;;;;34.73;21.57;;;;;;;0.76;90.16;99433.58;1477358;88;21745;-87
2022/12/15 01:55:31;;;;;;;33.40;20.63;;;;;;;0.77;90.06;99431.33;1482142;87;21571;-89
2022/12/15 01:58:03;;;;;;;38.90;23.43;;;;;;;0.78;90.14;99426.50;1463052;88;21630;-89
2022/12/15 02:00:30;;;;;;;35.40;22.70;;;;;;;0.78;90.26;99437.39;1483495;88;21447;-88
2022/12/15 02:02:58;;;;;;;36.20;22.57;;;;;;;0.80;90.18;99435.02;1479770;87;22563;-87
2022/12/15 02:05:24;;;;;;;32.53;19.73;;;;;;;0.82;90.15;99429.23;1480037;88;22489;-89
2022/12/15 02:07:50;;;;;;;34.13;21.23;;;;;;;0.85;90.14;99432.09;1479547;88;21694;-87
2022/12/15 02:10:16;;;;;;;31.70;20.17;;;;;;;0.86;90.10;99428.09;1480759;87;21995;-87
2022/12/15 02:13:12;;;;;;;36.57;21.10;;;;;;;0.87;90.16;99428.92;1480262;88;21650;-87
2022/12/15 02:16:07;;;;;;;40.43;22.47;;;;;;;0.86;90.21;99437.66;1479245;88;21685;-85
2022/12/15 02:18:47;;;;;;;35.10;21.03;;;;;;;0.83;90.12;99433.48;1447386;90;21848;-87
2022/12/15 02:21:21;;;;;;;35.90;22.43;;;;;;;0.84;90.23;99433.88;1477055;88;22599;-87
2022/12/15 02:24:22;;;;;;;35.43;19.70;;;;;;;0.86;90.32;99442.42;1473017;88;21861;-87
2022/12/15 02:27:24;;;;;;;34.38;22.07;;;;;;;0.90;90.37;99422.18;1477721;88;21742;-87
2022/12/15 02:30:34;;;;;;;39.17;23.03;;;;;;;0.89;90.53;99421.35;1482532;88;21500;-86
2022/12/15 02:33:08;;;;;;;67.57;30.73;;;;;;;0.83;90.54;99423.07;1455397;88;21771;-84
2022/12/15 02:36:01;;;;;;;80.47;34.27;;;;;;;0.82;90.88;99422.72;1480984;88;21662;-84
2022/12/15 02:38:37;;;;;;;57.17;30.03;;;;;;;0.81;91.32;99420.24;1481047;88;22644;-88
2022/12/15 02:41:07;;;;;;;64.20;33.20;;;;;;;0.80;91.43;99418.56;1482602;88;21491;-87
2022/12/15 02:43:37;;;;;;;53.93;28.77;;;;;;;0.81;91.72;99426.75;1480239;88;21599;-87
2022/12/15 02:46:15;;;;;;;55.65;33.18;;;;;;;0.79;92.77;99434.66;1479824;88;22437;-86
2022/12/15 02:48:56;;;;;;;52.13;28.23;;;;;;;0.78;92.48;99438.22;1478447;88;21360;-85
2022/12/15 02:51:40;;;;;;;47.78;27.95;;;;;;;0.78;92.24;99440.83;1483611;88;21625;-84
2022/12/15 02:54:17;;;;;;;39.07;22.00;;;;;;;0.80;92.23;99446.73;1416273;92;21455;-86
2022/12/15 02:57:11;;;;;;;34.47;20.53;;;;;;;0.79;92.66;99447.69;1479877;88;21862;-85
2022/12/15 03:00:06;;;;;;;32.70;19.93;;;;;;;0.81;92.51;99453.63;1481776;88;21723;-82
2022/12/15 03:02:36;;;;;;;30.03;19.07;;;;;;;0.81;92.82;99458.84;1480813;89;21845;-85
2022/12/15 03:05:03;;;;;;;37.47;21.20;;;;;;;0.80;92.93;99454.55;1481855;88;21589;-84
2022/12/15 03:07:29;;;;;;;31.57;20.63;;;;;;;0.78;93.37;99455.62;1454207;88;21672;-84
2022/12/15 03:09:59;;;;;;;34.07;20.00;;;;;;;0.77;93.23;99453.47;1472843;88;21538;-80
2022/12/15 03:12:26;;;;;;;32.00;20.17;;;;;;;0.78;93.47;99456.45;1479794;88;21316;-84
2022/12/15 03:14:53;;;;;;;31.47;19.03;;;;;;;0.81;93.61;99451.02;1479715;87;22861;-82
2022/12/15 03:17:19;;;;;;;28.47;18.53;;;;;;;0.84;93.53;99446.90;1478956;88;21742;-83
2022/12/15 03:19:45;;;;;;;34.23;20.87;;;;;;;0.86;93.73;99441.12;1474322;87;21581;-83
2022/12/15 03:22:11;;;;;;;36.30;21.90;;;;;;;0.89;93.76;99434.83;1480879;87;21506;-85
2022/12/15 03:24:37;;;;;;;31.13;20.07;;;;;;;0.87;93.82;99429.74;1478114;88;21551;-86
2022/12/15 03:27:03;;;;;;;36.43;24.33;;;;;;;0.84;94.57;99429.97;1480258;87;22557;-85
2022/12/15 03:29:29;;;;;;;31.20;18.57;;;;;;;0.83;95.49;99427.45;1482670;88;21557;-86
2022/12/15 03:31:56;;;;;;;28.93;19.47;;;;;;;0.83;95.63;99449.12;1478747;88;21796;-85
2022/12/15 03:34:22;;;;;;;30.73;18.53;;;;;;;0.82;95.80;99450.07;1473760;87;21676;-85
2022/12/15 03:36:48;;;;;;;31.63;19.43;;;;;;;0.83;96.95;99449.12;1449897;88;21754;-84
2022/12/15 03:39:14;;;;;;;33.57;20.07;;;;;;;0.81;96.40;99452.33;1481383;87;22621;-84
2022/12/15 03:41:40;;;;;;;39.77;22.87;;;;;;;0.79;97.58;99462.49;1475112;88;21752;-85
2022/12/15 03:44:07;;;;;;;38.63;24.80;;;;;;;0.77;97.33;99469.09;1484245;88;22632;-85
2022/12/15 03:46:33;;;;;;;40.13;24.80;;;;;;;0.74;98.87;99465.41;1485676;87;21661;-85
2022/12/15 03:48:59;;;;;;;41.80;26.77;;;;;;;0.74;98.90;99462.80;1486144;88;22386;-86
2022/12/15 03:51:25;;;;;;;41.20;23.07;;;;;;;0.81;98.21;99464.52;1486481;87;21628;-85
2022/12/15 03:53:52;;;;;;;32.57;20.63;;;;;;;0.81;98.21;99464.52;1484198;87;22105;-84
2022/12/15 03:56:18;;;;;;;33.93;19.77;;;;;;;0.82;98.61;99474.82;1481645;88;21536;-85
2022/12/15 03:58:44;;;;;;;35.00;19.70;;;;;;;0.81;99.14;99473.17;1480049;88;21941;-84
2022/12/15 04:01:26;;;;;;;40.80;20.93;;;;;;;0.79;98.98;99463.31;1481792;88;21477;-85
2022/12/15 04:03:52;;;;;;;30.73;19.33;;;;;;;0.79;98.50;99462.02;1473712;88;21419;-86
2022/12/15 04:06:18;;;;;;;36.57;20.40;;;;;;;0.80;99.24;99476.69;1482677;87;21672;-86
2022/12/15 04:08:44;;;;;;;34.80;21.20;;;;;;;0.83;99.39;99476.47;1481124;88;21621;-85
2022/12/15 04:11:11;;;;;;;34.50;22.47;;;;;;;0.85;99.52;99488.10;1478691;87;21626;-85
2022/12/15 04:13:36;;;;;;;48.40;26.13;;;;;;;0.84;99.77;99476.85;1460226;88;22499;-86
2022/12/15 04:16:03;;;;;;;44.73;26.13;;;;;;;0.88;99.05;99486.10;1477765;88;21607;-86
2022/12/15 04:18:30;;;;;;;43.60;25.60;;;;;;;0.87;99.18;99488.36;1481712;88;21972;-85
2022/12/15 04:20:56;;;;;;;36.03;22.07;;;;;;;0.89;98.62;99486.92;1478906;87;21746;-86
2022/12/15 04:23:23;;;;;;;33.67;20.83;;;;;;;0.92;98.89;99495.00;1481307;88;21789;-84
2022/12/15 05:32:18;;;;;;;49.63;30.20;;;;;;;0.98;100.00;99583.16;1495581;87;21631;-86
2022/12/15 05:34:44;;;;;;;52.87;30.63;;;;;;;0.89;100.00;99588.09;1477027;87;21499;-83
2022/12/15 05:37:10;;;;;;;49.67;28.60;;;;;;;0.89;100.00;99588.09;1485421;87;21885;-82
2022/12/15 05:39:36;;;;;;;47.33;27.90;;;;;;;0.94;100.00;99590.83;1479216;87;23070;-85
2022/12/15 05:42:03;;;;;;;53.07;29.97;;;;;;;0.95;100.00;99597.70;1482820;87;21404;-85
2022/12/15 05:44:29;;;;;;;51.80;29.77;;;;;;;0.97;100.00;99599.27;1489085;87;22335;-87
2022/12/15 05:46:55;;;;;;;55.00;31.93;;;;;;;0.99;100.00;99600.47;1484104;87;21696;-86
2022/12/15 05:49:26;;;;;;;50.37;27.97;;;;;;;0.99;100.00;99609.12;1481481;87;21650;-87
2022/12/15 05:51:50;;;;;;;50.50;29.70;;;;;;;0.99;100.00;99616.11;1487670;88;22438;-86
2022/12/15 05:54:19;;;;;;;48.60;28.47;;;;;;;0.99;100.00;99620.02;1480086;87;21741;-87
2022/12/15 05:56:46;;;;;;;51.97;31.13;;;;;;;1.00;100.00;99616.45;1479330;87;21664;-88
2022/12/15 05:59:14;;;;;;;57.50;29.77;;;;;;;1.01;100.00;99612.94;1489312;88;23034;-85
2022/12/15 06:01:40;;;;;;;47.27;28.53;;;;;;;1.03;100.00;99620.16;1477613;87;22624;-85
2022/12/15 06:04:06;;;;;;;65.13;33.67;;;;;;;1.04;100.00;99620.53;1475360;87;21596;-83
2022/12/15 06:06:33;;;;;;;71.97;37.97;;;;;;;1.03;100.00;99623.59;1479950;87;21560;-85
2022/12/15 06:08:59;;;;;;;63.17;32.77;;;;;;;1.03;100.00;99621.45;1479785;87;21587;-86
2022/12/15 06:11:25;;;;;;;60.50;33.70;;;;;;;1.04;100.00;99628.36;1483307;87;22408;-86
2022/12/15 06:13:51;;;;;;;68.97;36.20;;;;;;;1.04;100.00;99636.17;1484543;88;22527;-85
2022/12/15 06:16:20;;;;;;;82.37;41.07;;;;;;;1.07;100.00;99641.17;1483214;88;21648;-86
2022/12/15 06:18:51;;;;;;;67.77;38.70;;;;;;;1.11;100.00;99646.52;1473247;88;22001;-85
2022/12/15 06:21:26;;;;;;;47.08;26.77;;;;;;;1.16;100.00;99648.34;1481500;88;21867;-85
2022/12/15 06:23:51;;;;;;;60.13;33.77;;;;;;;1.18;100.00;99649.52;1481456;88;21536;-84
2022/12/15 06:26:24;;;;;;;64.13;34.33;;;;;;;1.18;100.00;99640.40;1486142;87;21554;-85
2022/12/15 06:28:51;;;;;;;60.47;31.10;;;;;;;1.18;100.00;99649.08;1483146;88;21632;-82
2022/12/15 06:31:24;;;;;;;74.27;37.53;;;;;;;1.15;100.00;99664.90;1478406;87;22061;-83
2022/12/15 06:33:51;;;;;;;63.33;35.73;;;;;;;1.13;100.00;99663.72;1472375;88;21743;-84
2022/12/15 06:36:19;;;;;;;67.07;33.93;;;;;;;1.17;100.00;99670.85;1488451;88;21730;-84
2022/12/15 06:38:45;;;;;;;63.47;34.87;;;;;;;1.20;100.00;99676.33;1489379;88;21697;-83
2022/12/15 06:41:15;;;;;;;66.83;34.43;;;;;;;1.25;100.00;99680.76;1477728;88;21590;-84
2022/12/15 06:43:45;;;;;;;70.40;35.23;;;;;;;1.30;100.00;99692.53;1475180;88;21838;-86
2022/12/15 06:46:11;;;;;;;62.03;33.97;;;;;;;1.34;100.00;99703.58;1486780;88;21582;-84
2022/12/15 06:48:37;;;;;;;72.50;34.67;;;;;;;1.33;100.00;99706.66;1485010;87;21707;-83
2022/12/15 06:51:06;;;;;;;72.43;37.50;;;;;;;1.35;100.00;99706.09;1474433;87;21331;-85
2022/12/15 06:53:39;;;;;;;75.40;39.20;;;;;;;1.33;100.00;99707.96;1483657;88;21737;-87
2022/12/15 06:56:17;;;;;;;72.67;34.37;;;;;;;1.33;100.00;99713.17;1486377;88;21588;-88
2022/12/15 06:58:43;;;;;;;66.77;35.67;;;;;;;1.35;100.00;99719.57;1480032;87;21647;-86
2022/12/15 07:01:10;;;;;;;68.23;34.03;;;;;;;1.39;100.00;99730.17;1482007;88;21677;-84
2022/12/15 07:03:37;;;;;;;72.43;34.40;;;;;;;1.42;100.00;99736.95;1471938;88;21360;-84
2022/12/15 07:06:10;;;;;;;74.57;35.97;;;;;;;1.40;100.00;99738.83;1479525;87;21678;-84
2022/12/15 07:08:37;;;;;;;79.77;38.97;;;;;;;1.43;100.00;99733.39;1485519;88;21720;-82
2022/12/15 07:11:05;;;;;;;107.60;57.13;;;;;;;1.44;100.00;99732.44;1481046;88;22763;-83
2022/12/15 07:13:32;;;;;;;97.00;44.77;;;;;;;1.44;100.00;99733.75;1485639;88;21662;-83
2022/12/15 07:16:03;;;;;;;78.50;37.93;;;;;;;1.45;100.00;99728.44;1485977;88;22411;-83
2022/12/15 07:18:30;;;;;;;88.78;47.70;;;;;;;1.47;100.00;99729.17;1482791;88;21682;-82
2022/12/15 07:21:04;;;;;;;93.63;47.07;;;;;;;1.52;100.00;99728.84;1476586;87;21419;-86
2022/12/15 07:23:32;;;;;;;84.17;40.67;;;;;;;1.56;100.00;99725.92;1481966;88;21780;-86
2022/12/15 07:26:04;;;;;;;91.07;39.43;;;;;;;1.61;100.00;99729.48;1478409;88;22132;-84
2022/12/15 07:28:30;;;;;;;105.83;46.70;;;;;;;1.63;100.00;99730.23;1486041;88;22521;-86
2022/12/15 07:31:04;;;;;;;88.97;41.70;;;;;;;1.63;100.00;99743.27;1481198;87;21808;-86
2022/12/15 07:33:32;;;;;;;104.57;43.47;;;;;;;1.60;100.00;99759.13;1484111;88;22643;-87
2022/12/15 07:36:00;;;;;;;85.80;38.37;;;;;;;1.58;100.00;99763.17;1474028;87;22689;-87
2022/12/15 07:38:27;;;;;;;85.10;43.50;;;;;;;1.57;100.00;99765.88;1482738;88;21701;-87
2022/12/15 07:40:54;;;;;;;76.07;35.50;;;;;;;1.58;100.00;99768.83;1477231;88;21697;-87
2022/12/15 07:43:23;;;;;;;65.83;33.43;;;;;;;1.58;100.00;99787.09;1480531;87;21855;-87
2022/12/15 07:45:53;;;;;;;84.50;38.20;;;;;;;1.58;100.00;99787.09;1480196;88;21678;-88
2022/12/15 07:48:20;;;;;;;82.53;38.55;;;;;;;1.57;100.00;99793.26;1475096;87;21899;-87
2022/12/15 07:50:46;;;;;;;85.33;37.40;;;;;;;1.56;100.00;99794.20;1479480;88;21537;-85
2022/12/15 07:53:14;;;;;;;83.87;37.97;;;;;;;1.52;100.00;99787.04;1474044;87;21767;-85
2022/12/15 07:55:40;;;;;;;84.77;40.33;;;;;;;1.49;100.00;99801.59;1474156;87;21757;-84
2022/12/15 07:58:08;;;;;;;94.83;41.90;;;;;;;1.48;100.00;99812.15;1489056;88;22586;-86
2022/12/15 08:00:34;;;;;;;103.43;48.23;;;;;;;1.46;100.00;99816.63;1474097;87;21648;-85
2022/12/15 08:03:03;;;;;;;93.70;49.57;;;;;;;1.46;100.00;99828.36;1479232;87;21663;-88
2022/12/15 08:05:29;;;;;;;116.73;56.67;;;;;;;1.45;100.00;99831.92;1483593;88;22306;-88
2022/12/15 08:07:57;;;;;;;134.83;67.33;;;;;;;1.45;100.00;99833.22;1484955;87;21610;-87
2022/12/15 08:10:23;;;;;;;92.33;45.97;;;;;;;1.44;100.00;99836.30;1476467;88;22330;-87
2022/12/15 08:12:49;;;;;;;111.13;44.83;;;;;;;1.44;100.00;99839.36;1449495;88;21723;-89
2022/12/15 08:15:16;;;;;;;92.00;41.03;;;;;;;1.45;100.00;99848.87;1483269;87;22519;-90
2022/12/15 08:17:43;;;;;;;87.40;38.97;;;;;;;1.45;100.00;99856.70;1484509;88;21501;-89
2022/12/15 08:20:11;;;;;;;87.37;40.10;;;;;;;1.45;100.00;99864.52;1481357;88;22689;-87
2022/12/15 08:22:37;;;;;;;90.10;40.43;;;;;;;1.50;100.00;99870.27;1476810;87;21748;-87
2022/12/15 08:25:04;;;;;;;85.57;39.47;;;;;;;1.56;100.00;99877.20;1469084;87;21712;-87
2022/12/15 08:27:30;;;;;;;90.70;41.47;;;;;;;1.59;100.00;99878.77;1479992;88;21633;-86
2022/12/15 08:29:56;;;;;;;96.70;42.13;;;;;;;1.63;100.00;99886.73;1480016;87;21845;-88
2022/12/15 08:32:22;;;;;;;108.80;45.30;;;;;;;1.60;100.00;99889.55;1478026;87;22699;-86
2022/12/15 08:34:48;;;;;;;109.03;48.57;;;;;;;1.58;100.00;99895.34;1478495;88;21988;-90
2022/12/15 08:37:26;;;;;;;95.73;43.40;;;;;;;1.50;100.00;99900.26;1469016;87;22734;-86
2022/12/15 08:39:52;;;;;;;101.07;43.83;;;;;;;1.45;100.00;99901.03;1454317;88;21911;-86
2022/12/15 08:42:18;;;;;;;95.77;40.70;;;;;;;1.46;100.00;99906.59;1479014;88;22701;-88
2022/12/15 08:44:56;;;;;;;79.23;35.63;;;;;;;1.49;100.00;99904.61;1471453;87;21743;-90
2022/12/15 08:50:47;;;;;;;92.53;40.90;;;;;;;1.52;100.00;99899.66;1475051;88;22728;-90
2022/12/15 08:53:12;;;;;;;95.17;38.60;;;;;;;1.50;100.00;99895.88;1499977;87;21619;-83
2022/12/15 08:55:39;;;;;;;95.23;42.37;;;;;;;1.53;100.00;99896.97;1495351;87;21620;-89
2022/12/15 08:58:05;;;;;;;100.10;43.83;;;;;;;1.56;100.00;99883.72;1479017;88;21455;-89
2022/12/15 09:00:31;;;;;;;87.90;42.17;;;;;;;1.57;100.00;99881.94;1481303;88;21709;-90
2022/12/15 09:02:59;;;;;;;107.17;45.07;;;;;;;1.58;100.00;99879.69;1461368;88;21727;-89
2022/12/15 09:05:28;;;;;;;94.67;38.87;;;;;;;1.60;100.00;99875.69;1481617;88;21652;-87
2022/12/15 09:07:57;;;;;;;91.20;41.30;;;;;;;1.63;100.00;99876.30;1476271;88;21891;-91
2022/12/15 09:10:24;;;;;;;82.47;40.27;;;;;;;1.65;100.00;99888.78;1485115;88;21696;-89
2022/12/15 09:12:54;;;;;;;78.30;35.07;;;;;;;1.63;100.00;99905.47;1479777;88;21785;-89
2022/12/15 09:15:21;;;;;;;77.60;35.87;;;;;;;1.58;100.00;99926.64;1478276;88;21691;-86
2022/12/15 09:17:48;;;;;;;78.30;36.30;;;;;;;1.55;100.00;99928.15;1478303;88;21655;-85
2022/12/15 09:20:16;;;;;;;82.73;39.60;;;;;;;1.51;100.00;99918.39;1481022;88;21759;-88
2022/12/15 09:22:43;;;;;;;85.37;38.57;;;;;;;1.50;100.00;99915.44;1478613;87;21704;-86
2022/12/15 09:25:10;;;;;;;66.90;35.57;;;;;;;1.51;100.00;99921.48;1474741;88;21714;-88
2022/12/15 09:27:37;;;;;;;69.83;33.13;;;;;;;1.50;100.00;99915.44;1473235;87;22551;-88
2022/12/15 09:30:06;;;;;;;73.10;35.13;;;;;;;1.54;100.00;99906.45;1479946;88;21647;-86
2022/12/15 09:32:33;;;;;;;69.97;34.33;;;;;;;1.60;100.00;99909.13;1482105;87;21976;-89
2022/12/15 09:35:00;;;;;;;69.30;35.97;;;;;;;1.67;100.00;99910.39;1456790;88;21705;-89
2022/12/15 09:37:30;;;;;;;74.93;35.37;;;;;;;1.70;100.00;99911.48;1477150;88;22520;-86
2022/12/15 09:39:57;;;;;;;74.93;37.90;;;;;;;1.76;100.00;99916.29;1478848;88;21666;-91
2022/12/15 09:42:29;;;;;;;75.07;34.43;;;;;;;1.82;100.00;99921.56;1477118;87;21818;-90
2022/12/15 09:45:02;;;;;;;61.97;30.67;;;;;;;1.84;100.00;99929.27;1480148;87;21659;-88
2022/12/15 09:47:43;;;;;;;70.67;32.57;;;;;;;1.85;100.00;99937.48;1478897;88;21918;-89
2022/12/15 09:50:14;;;;;;;71.57;36.97;;;;;;;1.83;100.00;99925.83;1476475;88;21877;-90
2022/12/15 09:52:51;;;;;;;66.20;34.45;;;;;;;1.84;100.00;99929.27;1479654;87;21999;-89
2022/12/15 09:55:26;;;;;;;73.60;38.10;;;;;;;1.87;100.00;99936.45;1479104;88;21472;-90
2022/12/15 09:58:16;;;;;;;61.70;29.83;;;;;;;1.82;100.00;99949.44;1476871;88;22622;-91
2022/12/15 10:00:54;;;;;;;64.93;29.77;;;;;;;1.79;100.00;99966.12;1478728;88;21822;-89
2022/12/15 10:03:48;;;;;;;65.63;30.90;;;;;;;1.79;100.00;99963.52;1482186;88;21845;-90
2022/12/15 10:06:26;;;;;;;72.37;33.97;;;;;;;1.73;100.00;99955.63;1480986;88;21810;-90
2022/12/15 10:08:58;;;;;;;74.07;36.40;;;;;;;1.74;100.00;99933.81;1478511;88;21759;-88
2022/12/15 10:11:37;;;;;;;58.50;29.43;;;;;;;1.78;100.00;99927.47;1479391;88;21722;-91
2022/12/15 10:14:25;;;;;;;60.73;28.67;;;;;;;1.82;100.00;99931.17;1481397;88;21609;-91
2022/12/15 10:17:07;;;;;;;62.97;32.87;;;;;;;1.85;100.00;99921.35;1476711;88;21848;-88
2022/12/15 10:20:02;;;;;;;63.80;32.73;;;;;;;1.95;100.00;99904.58;1468648;88;21796;-90
2022/12/15 10:22:34;;;;;;;59.77;31.80;;;;;;;2.02;100.00;99902.77;1483289;87;21742;-81
2022/12/15 10:25:25;;;;;;;55.45;32.28;;;;;;;2.02;100.00;99902.77;1476302;87;21835;-83
2022/12/15 10:28:30;;;;;;;66.82;35.13;;;;;;;2.09;100.00;99888.80;1477283;88;22541;-90
2022/12/15 10:31:08;;;;;;;57.40;30.20;;;;;;;2.18;100.00;99889.46;1479229;88;21544;-88
2022/12/15 10:38:21;;;;;;;57.57;29.33;;;;;;;2.36;100.00;99921.76;1478070;88;21939;-89
2022/12/15 10:41:02;;;;;;;63.90;31.90;;;;;;;2.34;100.00;99928.89;1478749;88;21968;-89
2022/12/15 10:43:37;;;;;;;50.48;25.62;;;;;;;2.38;100.00;99931.64;1478691;88;21896;-89
2022/12/15 10:46:26;;;;;;;55.23;29.63;;;;;;;2.38;100.00;99925.94;1477516;88;21638;-89
2022/12/15 10:49:11;;;;;;;50.80;26.50;;;;;;;2.39;100.00;99932.02;1480271;87;21814;-91
2022/12/15 10:51:52;;;;;;;56.03;27.57;;;;;;;2.35;100.00;99921.41;1481774;88;21804;-89
2022/12/15 10:54:20;;;;;;;49.80;26.73;;;;;;;2.36;100.00;99926.98;1476215;88;21938;-90
2022/12/15 10:56:52;;;;;;;48.23;26.93;;;;;;;2.36;100.00;99926.98;1479693;88;21846;-86
2022/12/15 10:59:32;;;;;;;45.07;25.17;;;;;;;2.34;100.00;99935.41;1480113;88;21962;-89
2022/12/15 11:02:24;;;;;;;50.70;24.67;;;;;;;2.34;100.00;99935.41;1459905;88;22261;-91
2022/12/15 11:05:16;;;;;;;52.40;24.67;;;;;;;2.31;100.00;99923.41;1476565;88;22131;-90
2022/12/15 11:07:49;;;;;;;40.67;21.97;;;;;;;2.39;100.00;99917.17;1475455;88;22821;-90
2022/12/15 11:13:19;;;;;;;;;;;;;;;2.48;100.00;99910.47;1529612;89;22823;-84
2022/12/15 11:15:51;;;;;;;57.63;29.90;;;;;;;2.59;100.00;99914.47;1551142;89;20217;-90
2022/12/15 11:18:25;;;;;;;54.03;25.60;;;;;;;2.60;100.00;99910.90;1550575;89;21976;-91
2022/12/15 11:21:17;;;;;;;53.67;28.60;;;;;;;2.62;100.00;99923.39;1545944;89;21928;-91
2022/12/15 11:24:24;;;;;;;52.60;29.33;;;;;;;2.64;100.00;99926.70;1503332;89;22284;-91
2022/12/15 11:26:57;;;;;;;52.70;30.07;;;;;;;2.59;100.00;99923.61;1550283;89;22105;-87
2022/12/15 11:30:01;;;;;;;50.63;30.70;;;;;;;2.59;100.00;99923.61;1550575;89;21935;-87
2022/12/15 11:32:35;;;;;;;47.03;26.60;;;;;;;2.58;100.00;99922.39;1544417;89;22025;-87
2022/12/15 11:35:03;;;;;;;49.67;27.63;;;;;;;2.66;100.00;99932.66;1550594;89;22077;-89
2022/12/15 11:37:46;;;;;;;48.70;25.57;;;;;;;2.65;100.00;99932.31;1523273;89;22138;-88
2022/12/15 11:40:31;;;;;;;47.77;26.83;;;;;;;2.66;100.00;99935.76;1388185;90;22225;-89
2022/12/15 11:43:23;;;;;;;54.27;29.50;;;;;;;2.64;100.00;99930.63;1539604;89;22874;-88
2022/12/15 11:46:21;;;;;;;56.83;29.83;;;;;;;2.67;100.00;99936.94;1392889;89;22002;-89
2022/12/15 11:49:24;;;;;;;49.53;29.63;;;;;;;2.67;100.00;99937.41;1552574;88;22143;-90
2022/12/15 11:52:13;;;;;;;42.97;24.03;;;;;;;2.65;100.00;99941.45;1482047;88;22399;-87
2022/12/15 11:54:58;;;;;;;53.13;26.03;;;;;;;2.61;100.00;99943.91;1529359;88;22922;-87
2022/12/15 11:57:46;;;;;;;47.90;25.10;;;;;;;2.64;100.00;99954.14;1479925;88;22152;-88
2022/12/15 12:00:18;;;;;;;60.50;31.20;;;;;;;2.62;100.00;99949.52;1479629;88;22929;-87
2022/12/15 12:03:12;;;;;;;46.00;24.97;;;;;;;2.70;100.00;99956.34;1477985;88;22239;-89
2022/12/15 12:05:56;;;;;;;52.67;27.97;;;;;;;2.77;100.00;99954.60;1478772;88;22159;-87
2022/12/15 12:08:32;;;;;;;60.50;28.40;;;;;;;2.84;100.00;99947.97;1478060;88;22115;-87
2022/12/15 12:11:17;;;;;;;57.43;28.27;;;;;;;2.93;100.00;99944.70;1477763;88;22257;-86
2022/12/15 12:14:14;;;;;;;54.07;27.70;;;;;;;3.00;100.00;99944.62;1478137;88;22035;-90
2022/12/15 12:17:02;;;;;;;48.93;27.07;;;;;;;3.05;100.00;99942.52;1485592;88;22284;-86
2022/12/15 12:19:52;;;;;;;57.20;28.07;;;;;;;3.12;100.00;99929.83;1458711;88;22360;-87
2022/12/15 12:22:43;;;;;;;60.05;29.18;;;;;;;3.20;100.00;99920.13;1475541;88;22072;-87
2022/12/15 12:25:19;;;;;;;48.78;23.83;;;;;;;3.27;100.00;99916.09;1476364;88;21507;-86
2022/12/15 12:27:59;;;;;;;51.63;27.93;;;;;;;3.33;100.00;99920.87;1481273;88;21478;-90
2022/12/15 12:30:43;;;;;;;53.25;26.85;;;;;;;3.33;100.00;99924.31;1478635;87;22389;-90
2022/12/15 12:33:16;;;;;;;53.90;29.77;;;;;;;3.34;100.00;99933.02;1475332;88;21411;-88
2022/12/15 12:35:51;;;;;;;54.87;29.50;;;;;;;3.29;99.93;99929.42;1476008;88;23032;-87
2022/12/15 12:38:29;;;;;;;54.23;27.83;;;;;;;3.30;100.00;99933.70;1475238;88;22982;-83
2022/12/15 12:41:08;;;;;;;54.70;26.83;;;;;;;3.29;100.00;99936.44;1480344;88;22210;-87
2022/12/15 12:43:44;;;;;;;49.97;28.37;;;;;;;3.35;100.00;99932.06;1481185;88;22093;-85
2022/12/15 12:46:45;;;;;;;50.17;26.60;;;;;;;3.38;100.00;99927.91;1479829;88;22137;-91
2022/12/15 12:49:32;;;;;;;48.47;25.60;;;;;;;3.42;100.00;99929.34;1559474;88;22878;-89
2022/12/15 12:52:03;;;;;;;45.87;26.43;;;;;;;3.41;99.72;99929.47;1413495;88;22079;-88
2022/12/15 12:54:38;;;;;;;50.33;28.70;;;;;;;3.47;100.00;99926.39;1400341;88;21960;-92
2022/12/15 12:57:17;;;;;;;53.00;27.33;;;;;;;3.51;99.93;99922.58;1565546;88;21880;-88
2022/12/15 13:00:22;;;;;;;52.57;27.67;;;;;;;3.51;99.66;99919.52;1565670;88;21952;-87
2022/12/15 13:03:12;;;;;;;41.20;23.80;;;;;;;3.50;98.77;99938.77;1406180;89;22188;-89
2022/12/15 13:05:41;;;;;;;53.53;27.33;;;;;;;3.50;98.77;99938.77;1565720;88;21176;-88
2022/12/15 13:08:14;;;;;;;46.97;26.37;;;;;;;3.41;98.92;99936.83;1408513;88;22207;-89
2022/12/15 13:10:45;;;;;;;56.53;31.77;;;;;;;3.35;98.72;99944.66;1565514;88;22049;-89
2022/12/15 13:13:32;;;;;;;52.98;29.07;;;;;;;3.35;98.72;99944.66;1400076;87;21227;-91
2022/12/15 13:16:25;;;;;;;47.23;25.07;;;;;;;3.34;98.99;99940.87;1565442;88;21323;-85
2022/12/15 13:19:07;;;;;;;47.43;24.80;;;;;;;3.34;99.14;99947.41;1403322;88;22176;-87
2022/12/15 13:26:01;;;;;;;39.33;23.27;;;;;;;3.33;99.38;99944.41;1565529;88;22866;-90
2022/12/15 13:28:41;;;;;;;45.33;26.17;;;;;;;3.29;99.45;99940.36;1565564;88;21921;-87
2022/12/15 13:31:23;;;;;;;46.28;26.40;;;;;;;3.28;99.61;99954.37;1565726;88;23040;-88
2022/12/15 13:37:54;;;;;;;69.90;38.77;;;;;;;3.25;99.91;99951.98;1559328;88;21976;-90
2022/12/15 13:41:18;;;;;;;87.87;47.17;;;;;;;3.20;100.00;99952.81;1503647;88;23479;-86
2022/12/15 13:43:47;;;;;;;72.60;41.50;;;;;;;3.20;100.00;99952.81;1480350;88;22299;-89
2022/12/15 13:46:26;;;;;;;59.97;33.17;;;;;;;3.18;100.00;99963.84;1481554;88;22289;-88
2022/12/15 13:49:04;;;;;;;59.97;32.30;;;;;;;3.16;100.00;99975.27;1476872;88;22257;-89
2022/12/15 13:51:35;;;;;;;68.17;34.80;;;;;;;3.15;100.00;99970.97;1483425;88;22043;-83
2022/12/15 13:54:23;;;;;;;64.40;31.25;;;;;;;3.12;100.00;99963.34;1564883;88;22960;-88
2022/12/15 13:57:11;;;;;;;64.87;35.27;;;;;;;3.07;100.00;99965.45;1405437;88;21264;-88
2022/12/15 13:59:43;;;;;;;70.63;37.30;;;;;;;3.03;100.00;99967.94;1403818;88;23070;-83
2022/12/15 14:02:29;;;;;;;74.03;37.57;;;;;;;3.04;100.00;99973.52;1558703;88;21949;-86
2022/12/15 14:05:18;;;;;;;61.83;29.73;;;;;;;3.07;100.00;99971.98;1543714;88;21971;-83
2022/12/15 14:08:01;;;;;;;68.00;34.13;;;;;;;3.09;100.00;99963.56;1559375;87;22207;-88
2022/12/15 14:10:55;;;;;;;70.93;34.03;;;;;;;3.07;100.00;99960.22;1565528;88;21933;-86
2022/12/15 14:13:32;;;;;;;79.27;39.23;;;;;;;3.08;100.00;99961.91;1401487;88;22963;-88
2022/12/15 14:16:20;;;;;;;80.40;39.87;;;;;;;3.04;100.00;99962.23;1381988;89;22052;-84
2022/12/15 14:19:15;;;;;;;93.80;42.53;;;;;;;3.01;100.00;99962.45;1559768;88;22869;-88
2022/12/15 14:21:55;;;;;;;83.77;41.27;;;;;;;2.96;100.00;99958.02;1544854;88;22161;-82
2022/12/15 14:24:30;;;;;;;76.37;39.18;;;;;;;2.95;100.00;99966.34;1403717;88;23122;-88
2022/12/15 14:26:58;;;;;;;82.50;37.80;;;;;;;2.94;100.00;99960.77;1565521;87;21338;-89
2022/12/15 14:29:26;;;;;;;82.53;36.03;;;;;;;2.90;100.00;99954.06;1408657;88;22155;-84